createdAt,value
2023-01-09T00:02:23.478Z,100173.63
2023-01-09T00:04:52.859Z,100173.84
2023-01-09T00:07:20.844Z,100166.81
2023-01-09T00:09:48.776Z,100176.34
2023-01-09T00:12:16.729Z,100181.00
2023-01-09T00:14:44.808Z,100173.56
2023-01-09T00:17:12.736Z,100173.78
2023-01-09T00:19:40.749Z,100169.97
2023-01-09T00:22:10.639Z,100173.56
2023-01-09T00:24:38.748Z,100172.09
2023-01-09T00:27:06.723Z,100172.63
2023-01-09T00:29:34.644Z,100169.38
2023-01-09T00:32:02.625Z,100169.19
2023-01-09T00:34:30.620Z,100170.06
2023-01-09T00:36:58.575Z,100168.78
2023-01-09T00:39:27.906Z,100169.00
2023-01-09T00:41:55.884Z,100159.06
2023-01-09T00:44:26.160Z,100155.66
2023-01-09T00:46:55.402Z,100151.56
2023-01-09T00:49:23.365Z,100152.19
2023-01-09T00:51:51.322Z,100150.78
2023-01-09T00:54:20.400Z,100153.78
2023-01-09T00:56:49.742Z,100150.69
2023-01-09T00:59:17.664Z,100149.72
2023-01-09T01:01:45.839Z,100163.69
2023-01-09T01:04:30.587Z,100157.22
2023-01-09T01:07:15.961Z,100157.00
2023-01-09T01:09:43.909Z,100155.31
2023-01-09T01:12:13.209Z,100149.38
2023-01-09T01:14:41.226Z,100152.22
2023-01-09T01:17:09.213Z,100146.72
2023-01-09T01:19:37.156Z,100144.16
2023-01-09T01:22:05.188Z,100137.19
2023-01-09T01:24:33.191Z,100129.97
2023-01-09T01:27:01.134Z,100131.22
2023-01-09T01:29:30.469Z,100125.47
2023-01-09T01:31:58.427Z,100119.75
2023-01-09T01:34:26.389Z,100118.06
2023-01-09T01:36:54.330Z,100115.28
2023-01-09T01:39:22.285Z,100104.56
2023-01-09T01:41:50.194Z,100114.31
2023-01-09T01:44:54.995Z,100117.31
2023-01-09T01:47:24.779Z,100121.44
2023-01-09T01:49:53.262Z,100118.53
2023-01-09T01:52:21.165Z,100112.50
2023-01-09T01:54:49.138Z,100090.16
2023-01-09T01:57:17.072Z,100092.13
2023-01-09T01:59:50.237Z,100096.75
2023-01-09T02:02:18.387Z,100050.44
2023-01-09T02:04:47.812Z,100087.56
2023-01-09T02:07:15.724Z,100084.56
2023-01-09T02:09:44.603Z,100079.53
2023-01-09T02:12:17.142Z,100076.78
2023-01-09T02:14:45.144Z,100068.13
2023-01-09T02:17:17.976Z,100064.78
2023-01-09T02:20:09.735Z,100067.66
2023-01-09T02:22:38.721Z,100065.84
2023-01-09T02:25:24.377Z,100052.34
2023-01-09T02:28:16.137Z,100047.31
2023-01-09T02:30:46.091Z,100048.75
2023-01-09T02:33:36.837Z,100043.44
2023-01-09T02:36:18.326Z,100043.91
2023-01-09T02:38:54.908Z,100033.75
2023-01-09T02:41:24.988Z,100028.72
2023-01-09T02:44:18.898Z,100032.75
2023-01-09T02:46:48.200Z,100021.94
2023-01-09T02:49:16.322Z,100029.59
2023-01-09T02:51:51.928Z,99982.31
2023-01-09T02:54:28.872Z,100005.50
2023-01-09T02:57:09.022Z,100004.28
2023-01-09T02:59:39.529Z,99999.84
2023-01-09T03:02:24.034Z,99995.53
2023-01-09T03:04:57.362Z,99997.34
2023-01-09T03:07:27.348Z,99998.31
2023-01-09T03:09:58.847Z,99993.03
2023-01-09T03:12:27.545Z,99989.84
2023-01-09T03:14:56.950Z,100003.97
2023-01-09T03:17:28.755Z,100012.16
2023-01-09T03:19:56.686Z,100004.97
2023-01-09T03:22:24.617Z,99997.28
2023-01-09T03:24:52.524Z,100005.94
2023-01-09T03:27:20.545Z,99992.44
2023-01-09T03:29:48.518Z,99995.09
2023-01-09T03:32:16.445Z,100001.13
2023-01-09T03:34:45.839Z,100007.59
2023-01-09T03:37:13.825Z,100010.25
2023-01-09T03:39:43.446Z,100011.31
2023-01-09T03:42:11.435Z,100003.47
2023-01-09T03:44:39.397Z,100010.97
2023-01-09T03:47:07.384Z,100017.19
2023-01-09T03:49:35.402Z,100018.91
2023-01-09T03:52:04.925Z,100009.78
2023-01-09T03:54:32.865Z,100024.72
2023-01-09T03:57:00.837Z,100017.44
2023-01-09T03:59:28.811Z,100025.13
2023-01-09T04:01:56.886Z,100019.13
2023-01-09T04:04:24.901Z,100021.88
2023-01-09T04:06:52.855Z,100017.44
2023-01-09T04:09:22.214Z,100020.84
2023-01-09T04:11:50.150Z,100029.25
2023-01-09T04:14:18.108Z,100020.84
2023-01-09T04:16:46.040Z,100031.00
2023-01-09T04:19:14.007Z,100038.59
2023-01-09T04:21:41.969Z,100041.75
2023-01-09T04:24:10.067Z,100052.56
2023-01-09T04:26:39.442Z,100044.66
2023-01-09T04:29:07.356Z,100042.94
2023-01-09T04:31:35.393Z,100044.50
2023-01-09T04:34:03.364Z,100047.28
2023-01-09T04:36:31.310Z,100039.00
2023-01-09T04:38:59.280Z,100048.25
2023-01-09T04:41:44.476Z,100046.66
2023-01-09T04:44:13.821Z,100042.41
2023-01-09T04:46:41.778Z,100054.47
2023-01-09T04:49:09.716Z,100042.94
2023-01-09T04:51:37.724Z,100041.00
2023-01-09T04:54:06.062Z,100046.84
2023-01-09T04:56:34.067Z,100037.31
2023-01-09T04:59:02.043Z,100040.50
2023-01-09T05:01:31.454Z,100042.22
2023-01-09T05:03:59.607Z,100050.47
2023-01-09T05:06:27.556Z,100053.00
2023-01-09T05:08:56.662Z,100061.38
2023-01-09T05:11:25.487Z,100064.53
2023-01-09T05:13:53.502Z,100071.63
2023-01-09T05:16:21.509Z,100060.19
2023-01-09T05:18:56.518Z,100054.84
2023-01-09T05:21:24.696Z,100063.09
2023-01-09T05:23:52.691Z,100064.53
2023-01-09T05:26:23.985Z,100053.44
2023-01-09T05:28:52.220Z,100056.09
2023-01-09T05:31:20.288Z,100056.84
2023-01-09T05:33:48.343Z,100063.69
2023-01-09T05:36:17.743Z,100053.25
2023-01-09T05:38:45.670Z,100041.84
2023-01-09T05:41:13.615Z,100064.53
2023-01-09T05:43:41.587Z,100064.00
2023-01-09T05:46:09.604Z,100070.34
2023-01-09T05:48:37.848Z,100070.56
2023-01-09T05:51:05.994Z,100070.78
2023-01-09T05:53:35.355Z,100060.19
2023-01-09T05:56:03.357Z,100051.31
2023-01-09T05:58:31.307Z,100068.38
2023-01-09T06:00:59.654Z,100074.94
2023-01-09T06:03:27.639Z,100073.88
2023-01-09T06:05:55.631Z,100065.94
2023-01-09T06:08:24.392Z,100064.44
2023-01-09T06:10:53.711Z,100061.56
2023-01-09T06:13:21.662Z,100064.53
2023-01-09T06:15:49.689Z,100059.25
2023-01-09T06:18:17.681Z,100051.09
2023-01-09T06:20:46.000Z,100043.00
2023-01-09T06:23:14.077Z,100039.19
2023-01-09T06:25:42.059Z,100038.84
2023-01-09T06:28:11.601Z,100035.13
2023-01-09T06:30:39.963Z,100033.22
2023-01-09T06:33:07.926Z,100028.53
2023-01-09T06:35:35.908Z,100033.00
2023-01-09T06:38:04.079Z,100022.41
2023-01-09T06:40:32.008Z,100026.50
2023-01-09T06:42:59.975Z,100025.22
2023-01-09T06:45:29.316Z,100030.16
2023-01-09T06:47:57.292Z,100031.09
2023-01-09T06:50:25.253Z,100030.41
2023-01-09T06:52:53.233Z,100026.56
2023-01-09T06:55:21.411Z,100029.19
2023-01-09T06:57:49.353Z,100030.41
2023-01-09T07:00:18.312Z,100033.75
2023-01-09T07:02:47.667Z,100030.56
2023-01-09T07:05:15.650Z,100028.91
2023-01-09T07:07:43.622Z,100021.09
2023-01-09T07:10:12.738Z,100014.88
2023-01-09T07:12:40.717Z,100024.88
2023-01-09T07:15:09.522Z,100026.22
2023-01-09T07:17:37.481Z,100017.28
2023-01-09T07:20:07.937Z,100026.19
2023-01-09T07:22:35.922Z,100018.13
2023-01-09T07:25:03.965Z,100015.66
2023-01-09T07:27:31.882Z,100023.38
2023-01-09T07:29:59.803Z,100022.91
2023-01-09T07:32:27.789Z,100013.28
2023-01-09T07:34:55.728Z,100004.84
2023-01-09T07:37:25.068Z,100013.75
2023-01-09T07:39:53.145Z,100001.56
2023-01-09T07:42:21.081Z,100004.97
2023-01-09T07:44:48.996Z,99996.16
2023-01-09T07:47:16.911Z,100000.50
2023-01-09T07:49:44.855Z,99991.94
2023-01-09T07:52:12.772Z,100001.69
2023-01-09T07:54:42.111Z,99991.09
2023-01-09T07:57:10.072Z,99982.91
2023-01-09T07:59:37.991Z,99981.72
2023-01-09T08:02:07.319Z,99974.22
2023-01-09T08:04:35.331Z,99980.25
2023-01-09T08:07:04.294Z,99973.88
2023-01-09T08:09:32.276Z,99980.72
2023-01-09T08:12:01.651Z,99974.44
2023-01-09T08:14:29.579Z,99965.75
2023-01-09T08:16:57.499Z,99973.91
2023-01-09T08:19:25.446Z,99958.13
2023-01-09T08:21:53.425Z,99966.28
2023-01-09T08:24:21.387Z,99960.59
2023-01-09T08:26:49.331Z,99961.53
2023-01-09T08:29:18.649Z,99964.50
2023-01-09T08:31:46.657Z,99949.63
2023-01-09T08:34:14.662Z,99948.84
2023-01-09T08:36:42.605Z,99946.69
2023-01-09T08:39:10.585Z,99939.16
2023-01-09T08:41:55.605Z,99941.63
2023-01-09T08:44:42.420Z,99937.31
2023-01-09T08:47:10.398Z,99941.56
2023-01-09T08:49:39.182Z,99947.63
2023-01-09T08:52:07.389Z,99943.00
2023-01-09T08:54:36.902Z,99937.97
2023-01-09T08:57:04.867Z,99940.13
2023-01-09T08:59:34.171Z,99939.03
2023-01-09T09:02:02.224Z,99938.44
2023-01-09T09:04:30.443Z,99926.75
2023-01-09T09:06:58.399Z,99930.44
2023-01-09T09:09:26.402Z,99927.66
2023-01-09T09:11:54.371Z,99924.75
2023-01-09T09:14:39.823Z,99916.47
2023-01-09T09:17:09.143Z,99899.34
2023-01-09T09:19:37.049Z,99894.34
2023-01-09T09:22:04.994Z,99880.59
2023-01-09T09:24:32.920Z,99884.25
2023-01-09T09:27:00.830Z,99881.84
2023-01-09T09:29:28.917Z,99870.94
2023-01-09T09:31:57.694Z,99872.22
2023-01-09T09:34:28.253Z,99868.25
2023-01-09T09:36:56.260Z,99862.66
2023-01-09T09:39:24.370Z,99863.88
2023-01-09T09:42:29.104Z,99868.38
2023-01-09T09:45:14.420Z,99857.44
2023-01-09T09:47:47.246Z,99853.94
2023-01-09T09:50:27.672Z,99838.91
2023-01-09T09:52:58.485Z,99861.88
2023-01-09T09:55:28.146Z,99859.91
2023-01-09T09:57:56.075Z,99846.09
2023-01-09T10:00:24.740Z,99842.03
2023-01-09T10:02:53.981Z,99843.56
2023-01-09T10:05:26.606Z,99846.31
2023-01-09T10:07:54.563Z,99839.16
2023-01-09T10:10:27.391Z,99815.47
2023-01-09T10:12:56.281Z,99845.31
2023-01-09T10:15:30.983Z,99822.63
2023-01-09T10:18:06.003Z,99832.59
2023-01-09T10:20:47.557Z,99825.16
2023-01-09T10:23:35.090Z,99820.63
2023-01-09T10:26:05.229Z,99836.38
2023-01-09T10:28:45.994Z,99827.03
2023-01-09T10:31:16.777Z,99825.25
2023-01-09T10:33:50.508Z,99821.13
2023-01-09T10:36:37.871Z,99817.13
2023-01-09T10:39:08.543Z,99801.03
2023-01-09T10:41:38.554Z,99806.44
2023-01-09T10:44:08.534Z,99800.88
2023-01-09T10:46:38.798Z,99782.81
2023-01-09T10:49:07.254Z,99778.19
2023-01-09T10:51:38.428Z,99780.72
2023-01-09T10:54:06.415Z,99786.94
2023-01-09T10:56:35.891Z,99793.47
2023-01-09T10:59:03.813Z,99781.25
2023-01-09T11:01:33.675Z,99772.75
2023-01-09T11:04:02.376Z,99778.28
2023-01-09T11:06:33.857Z,99770.84
2023-01-09T11:09:03.210Z,99774.13
2023-01-09T11:11:35.238Z,99764.41
2023-01-09T11:14:05.543Z,99762.25
2023-01-09T11:16:33.449Z,99762.13
2023-01-09T11:19:01.849Z,99761.59
2023-01-09T11:21:35.774Z,99759.91
2023-01-09T11:27:24.514Z,99755.56
2023-01-09T11:30:27.883Z,99750.03
2023-01-09T11:32:56.251Z,99743.44
2023-01-09T11:35:27.097Z,99757.13
2023-01-09T11:38:06.868Z,99745.31
2023-01-09T11:40:38.995Z,99748.94
2023-01-09T11:43:16.950Z,99756.28
2023-01-09T11:45:56.455Z,99747.44
2023-01-09T11:48:38.533Z,99751.16
2023-01-09T11:51:10.481Z,99739.50
2023-01-09T11:53:58.546Z,99742.88
2023-01-09T11:56:26.484Z,99740.03
2023-01-09T11:58:55.747Z,99744.63
2023-01-09T12:01:34.832Z,99736.25
2023-01-09T12:04:12.069Z,99730.78
2023-01-09T12:06:43.592Z,99726.34
2023-01-09T12:09:12.738Z,99716.59
2023-01-09T12:11:41.955Z,99713.09
2023-01-09T12:14:20.631Z,99711.94
2023-01-09T12:16:58.912Z,99705.47
2023-01-09T12:19:44.855Z,99696.00
2023-01-09T12:22:16.955Z,99699.06
2023-01-09T12:24:58.832Z,99702.66
2023-01-09T12:27:30.844Z,99693.97
2023-01-09T12:30:11.550Z,99690.69
2023-01-09T12:32:47.229Z,99678.16
2023-01-09T12:35:21.992Z,99681.94
2023-01-09T12:38:05.325Z,99672.22
2023-01-09T12:40:45.288Z,99676.28
2023-01-09T12:43:16.484Z,99669.19
2023-01-09T12:45:53.135Z,99657.38
2023-01-09T12:48:28.226Z,99644.44
2023-01-09T12:51:02.877Z,99641.44
2023-01-09T12:53:32.156Z,99639.34
2023-01-09T12:56:02.627Z,99626.22
2023-01-09T12:58:34.754Z,99629.88
2023-01-09T13:01:05.079Z,99611.56
2023-01-09T13:03:35.650Z,99624.94
2023-01-09T13:06:03.694Z,99624.97
2023-01-09T13:08:32.417Z,99623.06
2023-01-09T13:11:18.836Z,99617.09
2023-01-09T13:13:49.145Z,99613.84
2023-01-09T13:16:19.260Z,99599.41
2023-01-09T13:18:48.829Z,99599.44
2023-01-09T13:21:16.814Z,99583.25
2023-01-09T13:23:48.342Z,99598.13
2023-01-09T13:26:17.228Z,99601.34
2023-01-09T13:28:47.052Z,99595.69
2023-01-09T13:31:36.305Z,99595.41
2023-01-09T13:34:08.674Z,99601.38
2023-01-09T13:36:40.063Z,99599.09
2023-01-09T13:39:08.020Z,99605.78
2023-01-09T13:41:53.132Z,99607.31
2023-01-09T13:44:23.635Z,99604.16
2023-01-09T13:46:54.192Z,99610.06
2023-01-09T13:49:49.785Z,99606.53
2023-01-09T13:52:31.257Z,99604.16
2023-01-09T13:55:24.797Z,99596.25
2023-01-09T13:58:22.723Z,99608.41
2023-01-09T14:00:58.795Z,99611.38
2023-01-09T14:03:31.498Z,99609.19
2023-01-09T14:06:20.099Z,99609.00
2023-01-09T14:08:49.296Z,99595.97
2023-01-09T14:11:21.807Z,99600.31
2023-01-09T14:13:54.323Z,99596.97
2023-01-09T14:16:24.769Z,99591.31
2023-01-09T14:18:57.500Z,99591.47
2023-01-09T14:21:25.503Z,99586.00
2023-01-09T14:24:01.172Z,99599.78
2023-01-09T14:26:44.075Z,99602.38
2023-01-09T14:29:40.854Z,99584.66
2023-01-09T14:32:43.757Z,99575.00
2023-01-09T14:35:18.818Z,99559.63
2023-01-09T14:37:57.264Z,99580.00
2023-01-09T14:40:25.182Z,99568.63
2023-01-09T14:42:54.501Z,99562.97
2023-01-09T14:45:23.665Z,99562.31
2023-01-09T14:47:54.784Z,99542.56
2023-01-09T14:50:29.075Z,99569.56
2023-01-09T14:53:00.834Z,99571.44
2023-01-09T14:55:31.228Z,99580.47
2023-01-09T14:58:11.615Z,99575.47
2023-01-09T15:00:46.583Z,99570.78
2023-01-09T15:03:14.583Z,99575.25
2023-01-09T15:05:43.934Z,99561.38
2023-01-09T15:08:13.972Z,99566.31
2023-01-09T15:10:41.864Z,99569.09
2023-01-09T15:13:14.394Z,99567.13
2023-01-09T15:15:46.008Z,99554.16
2023-01-09T15:18:20.074Z,99568.28
2023-01-09T15:20:52.194Z,99557.53
2023-01-09T15:23:23.859Z,99557.47
2023-01-09T15:25:51.825Z,99558.53
2023-01-09T15:28:40.941Z,99556.56
2023-01-09T15:31:12.982Z,99557.25
2023-01-09T15:33:40.962Z,99552.06
2023-01-09T15:36:13.472Z,99559.41
2023-01-09T15:38:41.412Z,99548.78
2023-01-09T15:41:10.482Z,99544.19
2023-01-09T15:43:39.830Z,99547.47
2023-01-09T15:46:07.844Z,99540.88
2023-01-09T15:48:36.095Z,99544.66
2023-01-09T15:51:05.161Z,99548.69
2023-01-09T15:53:34.687Z,99547.81
2023-01-09T15:56:04.523Z,99541.50
2023-01-09T15:58:34.672Z,99538.03
2023-01-09T16:01:02.886Z,99532.19
2023-01-09T16:03:30.800Z,99529.16
2023-01-09T16:06:05.488Z,99521.19
2023-01-09T16:08:36.123Z,99521.19
2023-01-09T16:11:05.547Z,99517.56
2023-01-09T16:13:36.055Z,99510.72
2023-01-09T16:16:03.964Z,99501.53
2023-01-09T16:18:33.913Z,99492.50
2023-01-09T16:21:07.255Z,99496.19
2023-01-09T16:23:36.920Z,99500.19
2023-01-09T16:26:06.411Z,99491.16
2023-01-09T16:28:34.393Z,99488.97
2023-01-09T16:31:05.126Z,99487.97
2023-01-09T16:33:33.126Z,99487.56
2023-01-09T16:36:01.150Z,99489.75
2023-01-09T16:38:29.076Z,99475.34
2023-01-09T16:41:22.482Z,99473.66
2023-01-09T16:43:50.782Z,99470.97
2023-01-09T16:46:19.931Z,99473.81
2023-01-09T16:48:47.905Z,99466.00
2023-01-09T16:51:17.285Z,99461.66
2023-01-09T16:53:45.294Z,99449.47
2023-01-09T16:56:18.700Z,99454.34
2023-01-09T16:58:46.946Z,99451.72
2023-01-09T17:01:15.037Z,99453.06
2023-01-09T17:03:44.227Z,99447.88
2023-01-09T17:06:15.180Z,99440.41
2023-01-09T17:08:44.026Z,99438.06
2023-01-09T17:11:19.954Z,99441.22
2023-01-09T17:13:48.241Z,99437.56
2023-01-09T17:16:16.625Z,99434.72
2023-01-09T17:18:44.599Z,99433.06
2023-01-09T17:21:18.053Z,99432.06
2023-01-09T17:23:46.390Z,99438.91
2023-01-09T17:26:37.112Z,99435.38
2023-01-09T17:29:05.194Z,99425.16
2023-01-09T17:31:33.172Z,99426.66
2023-01-09T17:34:01.262Z,99422.31
2023-01-09T17:36:30.744Z,99426.63
2023-01-09T17:38:58.879Z,99436.34
2023-01-09T17:41:29.347Z,99427.69
2023-01-09T17:43:57.347Z,99428.03
2023-01-09T17:46:27.973Z,99423.84
2023-01-09T17:48:55.923Z,99432.72
2023-01-09T17:51:23.846Z,99424.03
2023-01-09T17:53:51.885Z,99411.63
2023-01-09T17:56:20.538Z,99403.59
2023-01-09T17:58:49.878Z,99408.75
2023-01-09T18:01:18.190Z,99395.50
2023-01-09T18:03:48.537Z,99398.66
2023-01-09T18:06:17.420Z,99394.16
2023-01-09T18:08:45.458Z,99395.44
2023-01-09T18:11:16.056Z,99391.44
2023-01-09T18:13:44.150Z,99394.75
2023-01-09T18:16:14.218Z,99376.34
2023-01-09T18:18:42.242Z,99378.19
2023-01-09T18:21:10.329Z,99372.00
2023-01-09T18:23:38.333Z,99370.28
2023-01-09T18:26:07.715Z,99363.19
2023-01-09T18:28:37.103Z,99363.34
2023-01-09T18:31:05.268Z,99361.13
2023-01-09T18:33:34.637Z,99361.50
2023-01-09T18:36:06.888Z,99353.41
2023-01-09T18:38:34.969Z,99360.59
2023-01-09T18:41:03.205Z,99352.78
2023-01-09T18:43:31.211Z,99349.78
2023-01-09T18:45:59.207Z,99345.16
2023-01-09T18:48:27.170Z,99339.16
2023-01-09T18:51:05.128Z,99335.50
2023-01-09T18:53:33.051Z,99333.84
2023-01-09T18:56:03.797Z,99338.63
2023-01-09T18:58:33.857Z,99320.66
2023-01-09T19:01:02.196Z,99312.16
2023-01-09T19:03:31.638Z,99316.50
2023-01-09T19:06:01.014Z,99303.91
2023-01-09T19:08:31.312Z,99305.94
2023-01-09T19:10:59.388Z,99316.66
2023-01-09T19:13:30.158Z,99304.22
2023-01-09T19:15:58.206Z,99314.28
2023-01-09T19:18:26.654Z,99300.94
2023-01-09T19:20:54.693Z,99295.47
2023-01-09T19:23:24.712Z,99292.84
2023-01-09T19:25:54.718Z,99303.91
2023-01-09T19:28:22.754Z,99296.19
2023-01-09T19:30:55.776Z,99294.88
2023-01-09T19:33:24.488Z,99294.19
2023-01-09T19:35:52.961Z,99284.16
2023-01-09T19:38:22.505Z,99277.38
2023-01-09T19:40:50.565Z,99293.53
2023-01-09T19:43:26.724Z,99278.81
2023-01-09T19:45:55.057Z,99267.09
2023-01-09T19:48:23.145Z,99259.34
2023-01-09T19:50:51.165Z,99262.75
2023-01-09T19:53:19.158Z,99263.75
2023-01-09T19:55:47.111Z,99256.63
2023-01-09T19:58:15.105Z,99262.72
2023-01-09T20:00:44.579Z,99254.84
2023-01-09T20:03:12.668Z,99263.75
2023-01-09T20:05:40.616Z,99262.94
2023-01-09T20:08:09.360Z,99258.03
2023-01-09T20:10:37.429Z,99259.59
2023-01-09T20:13:05.390Z,99248.53
2023-01-09T20:15:33.303Z,99259.59
2023-01-09T20:18:04.272Z,99269.69
2023-01-09T20:20:32.475Z,99262.53
2023-01-09T20:23:00.400Z,99257.03
2023-01-09T20:25:28.343Z,99260.03
2023-01-09T20:27:56.294Z,99255.91
2023-01-09T20:30:24.263Z,99246.56
2023-01-09T20:32:52.644Z,99256.91
2023-01-09T20:35:22.998Z,99245.53
2023-01-09T20:37:52.561Z,99237.09
2023-01-09T20:40:20.693Z,99240.06
2023-01-09T20:42:48.668Z,99242.81
2023-01-09T20:45:16.775Z,99237.78
2023-01-09T20:47:45.472Z,99246.63
2023-01-09T20:50:13.486Z,99244.13
2023-01-09T20:52:42.797Z,99240.53
2023-01-09T20:55:11.014Z,99215.81
2023-01-09T20:57:38.968Z,99237.44
2023-01-09T21:00:08.286Z,99243.22
2023-01-09T21:02:36.301Z,99251.34
2023-01-09T21:05:04.240Z,99244.31
2023-01-09T21:07:32.153Z,99234.09
2023-01-09T21:10:01.463Z,99241.97
2023-01-09T21:12:34.844Z,99237.03
2023-01-09T21:15:04.689Z,99243.22
2023-01-09T21:17:33.961Z,99237.03
2023-01-09T21:20:01.919Z,99232.81
2023-01-09T21:22:29.980Z,99230.88
2023-01-09T21:24:57.903Z,99229.47
2023-01-09T21:27:28.125Z,99212.34
2023-01-09T21:29:56.048Z,99214.19
2023-01-09T21:32:23.997Z,99222.38
2023-01-09T21:34:51.957Z,99214.34
2023-01-09T21:37:19.884Z,99208.31
2023-01-09T21:39:47.842Z,99194.53
2023-01-09T21:42:33.147Z,99197.47
2023-01-09T21:45:20.235Z,99207.84
2023-01-09T21:47:48.169Z,99210.16
2023-01-09T21:50:17.482Z,99204.31
2023-01-09T21:52:45.522Z,99210.00
2023-01-09T21:55:13.469Z,99214.88
2023-01-09T21:57:41.434Z,99205.31
2023-01-09T22:00:12.344Z,99207.38
2023-01-09T22:02:41.108Z,99195.41
2023-01-09T22:05:09.294Z,99198.13
2023-01-09T22:07:37.427Z,99177.47
2023-01-09T22:10:06.018Z,99175.28
2023-01-09T22:12:33.971Z,99176.41
2023-01-09T22:15:01.943Z,99168.09
2023-01-09T22:17:31.270Z,99164.09
2023-01-09T22:19:59.209Z,99156.31
2023-01-09T22:22:27.147Z,99153.25
2023-01-09T22:24:55.120Z,99151.19
2023-01-09T22:27:23.097Z,99168.69
2023-01-09T22:29:51.087Z,99153.88
2023-01-09T22:32:19.025Z,99145.59
2023-01-09T22:34:48.351Z,99144.19
2023-01-09T22:37:16.347Z,99141.75
2023-01-09T22:39:44.440Z,99134.03
2023-01-09T22:42:12.394Z,99128.28
2023-01-09T22:44:40.413Z,99134.28
2023-01-09T22:47:08.358Z,99120.16
2023-01-09T22:49:52.010Z,99125.50
2023-01-09T22:52:22.324Z,99128.41
2023-01-09T22:54:50.247Z,99127.38
2023-01-09T22:57:18.228Z,99116.56
2023-01-09T22:59:46.149Z,99125.91
2023-01-09T23:02:14.171Z,99116.47
2023-01-09T23:04:42.151Z,99102.63
2023-01-09T23:07:10.101Z,99107.78
2023-01-09T23:09:39.432Z,99105.75
2023-01-09T23:12:07.855Z,99098.34
2023-01-09T23:14:36.732Z,99089.22
2023-01-09T23:17:04.843Z,99086.16
2023-01-09T23:19:35.341Z,99094.88
2023-01-09T23:22:03.362Z,99087.38
2023-01-09T23:24:31.437Z,99091.41
2023-01-09T23:27:00.710Z,99089.31
2023-01-09T23:29:28.672Z,99092.66
2023-01-09T23:31:56.647Z,99086.34
2023-01-09T23:34:27.291Z,99085.31
2023-01-09T23:36:57.427Z,99088.38
2023-01-09T23:39:25.498Z,99093.06
2023-01-09T23:42:10.749Z,99085.84
2023-01-09T23:44:40.027Z,99084.00
2023-01-09T23:47:08.528Z,99089.97
2023-01-09T23:49:36.520Z,99080.56
2023-01-09T23:52:06.120Z,99070.03
2023-01-09T23:54:34.102Z,99060.66
2023-01-09T23:57:02.089Z,99061.94
2023-01-09T23:59:30.031Z,99054.44
